createdAt,value
2023-03-15T00:02:02.967Z,0.90
2023-03-15T00:06:07.995Z,0.95
2023-03-15T00:10:12.116Z,0.93
2023-03-15T00:14:14.928Z,1.40
2023-03-15T00:18:19.214Z,0.93
2023-03-15T00:22:23.958Z,2.30
2023-03-15T00:26:26.821Z,0.90
2023-03-15T00:30:29.768Z,2.65
2023-03-15T00:34:33.714Z,1.90
2023-03-15T00:38:40.152Z,2.60
2023-03-15T00:42:49.957Z,1.13
2023-03-15T00:46:52.910Z,1.33
2023-03-15T00:51:03.789Z,1.20
2023-03-15T00:55:14.268Z,0.90
2023-03-15T00:59:17.330Z,0.80
2023-03-15T01:03:20.800Z,0.60
2023-03-15T01:07:23.679Z,0.40
2023-03-15T01:11:29.152Z,0.50
2023-03-15T01:15:32.558Z,0.40
2023-03-15T01:19:35.689Z,0.45
2023-03-15T01:23:38.837Z,0.43
2023-03-15T01:27:43.053Z,0.50
2023-03-15T01:31:45.948Z,0.70
2023-03-15T01:35:49.235Z,0.57
2023-03-15T01:39:52.417Z,0.60
2023-03-15T01:43:56.797Z,0.60
2023-03-15T01:47:59.932Z,0.30
2023-03-15T01:52:07.912Z,0.60
2023-03-15T01:56:18.030Z,0.35
2023-03-15T02:00:23.020Z,0.80
2023-03-15T02:04:37.367Z,0.70
2023-03-15T02:08:44.616Z,0.80
2023-03-15T02:12:51.274Z,0.88
2023-03-15T02:16:56.268Z,1.00
2023-03-15T02:21:05.779Z,0.90
2023-03-15T02:25:15.642Z,0.90
2023-03-15T02:29:20.136Z,1.10
2023-03-15T02:37:29.420Z,1.30
2023-03-15T02:41:35.755Z,1.05
2023-03-15T02:49:45.931Z,1.13
2023-03-15T02:53:49.074Z,0.90
2023-03-15T02:57:52.026Z,0.88
2023-03-15T03:01:57.152Z,1.02
2023-03-15T03:06:00.246Z,1.45
2023-03-15T03:10:03.821Z,2.05
2023-03-15T03:14:15.826Z,2.50
2023-03-15T03:18:21.139Z,2.78
2023-03-15T03:22:24.550Z,2.20
2023-03-15T03:26:28.034Z,3.47
2023-03-15T03:30:32.119Z,1.95
2023-03-15T03:34:37.020Z,1.88
2023-03-15T03:38:41.525Z,2.20
2023-03-15T03:42:44.726Z,2.15
2023-03-15T03:46:48.309Z,2.17
2023-03-15T03:50:52.666Z,2.00
2023-03-15T03:54:55.581Z,2.33
2023-03-15T03:58:58.484Z,2.50
2023-03-15T04:03:13.588Z,2.33
2023-03-15T04:07:22.982Z,1.75
2023-03-15T04:11:27.030Z,2.03
2023-03-15T04:15:36.811Z,1.98
2023-03-15T04:19:40.478Z,1.95
2023-03-15T04:23:46.313Z,1.88
2023-03-15T04:28:10.649Z,1.55
2023-03-15T04:32:28.907Z,1.45
2023-03-15T04:36:48.777Z,1.38
2023-03-15T04:41:11.190Z,1.40
2023-03-15T04:45:24.436Z,1.40
2023-03-15T04:49:45.649Z,1.85
2023-03-15T04:54:14.434Z,1.40
2023-03-15T04:58:32.889Z,1.67
2023-03-15T05:02:36.046Z,0.90
2023-03-15T05:07:01.914Z,1.38
2023-03-15T05:11:18.877Z,1.42
2023-03-15T05:15:52.032Z,2.08
2023-03-15T05:20:29.961Z,1.50
2023-03-15T05:24:51.252Z,1.85
2023-03-15T05:29:06.101Z,1.50
2023-03-15T05:33:29.629Z,2.45
2023-03-15T05:38:03.587Z,3.50
2023-03-15T05:42:26.394Z,4.85
2023-03-15T05:46:48.065Z,3.38
2023-03-15T05:51:13.169Z,3.88
2023-03-15T05:55:54.462Z,2.28
2023-03-15T06:00:17.123Z,2.20
2023-03-15T06:04:23.763Z,2.33
2023-03-15T06:08:30.480Z,2.50
2023-03-15T06:12:33.591Z,2.25
2023-03-15T06:16:37.106Z,3.83
2023-03-15T06:20:40.715Z,3.33
2023-03-15T06:24:49.505Z,3.60
2023-03-15T06:28:52.714Z,3.70
2023-03-15T06:32:55.925Z,5.00
2023-03-15T06:36:59.064Z,4.72
2023-03-15T06:41:05.069Z,3.47
2023-03-15T06:45:11.335Z,3.55
2023-03-15T06:49:14.719Z,4.57
2023-03-15T06:53:17.849Z,4.90
2023-03-15T06:57:22.480Z,4.15
2023-03-15T07:01:25.369Z,8.25
2023-03-15T07:05:28.318Z,4.95
2023-03-15T07:09:31.098Z,4.38
2023-03-15T07:13:35.297Z,3.33
2023-03-15T07:17:38.142Z,4.78
2023-03-15T07:21:41.048Z,3.63
2023-03-15T07:25:54.466Z,3.50
2023-03-15T07:29:59.130Z,3.05
2023-03-15T07:34:02.006Z,4.00
2023-03-15T07:38:04.767Z,3.47
2023-03-15T07:42:08.157Z,3.38
2023-03-15T07:46:18.497Z,3.72
2023-03-15T07:50:21.515Z,3.88
2023-03-15T07:54:24.308Z,4.20
2023-03-15T07:58:27.159Z,4.40
2023-03-15T08:02:31.340Z,3.90
2023-03-15T08:06:34.108Z,3.28
2023-03-15T08:10:37.058Z,3.05
2023-03-15T08:14:39.913Z,3.45
2023-03-15T08:18:44.079Z,3.35
2023-03-15T08:22:47.387Z,3.37
2023-03-15T08:26:51.183Z,3.03
2023-03-15T08:30:54.117Z,2.95
2023-03-15T08:34:58.360Z,3.10
2023-03-15T08:39:01.213Z,3.28
2023-03-15T08:43:04.113Z,3.60
2023-03-15T08:47:06.994Z,3.10
2023-03-15T08:51:11.690Z,3.00
2023-03-15T08:55:14.717Z,2.75
2023-03-15T08:59:29.153Z,3.15
2023-03-15T09:03:34.323Z,8.18
2023-03-15T09:07:39.757Z,3.67
2023-03-15T09:11:42.571Z,3.72
2023-03-15T09:15:45.400Z,3.72
2023-03-15T09:19:48.157Z,3.40
2023-03-15T09:23:52.503Z,3.25
2023-03-15T09:27:55.743Z,2.90
2023-03-15T09:31:58.489Z,3.10
2023-03-15T09:36:01.378Z,2.58
2023-03-15T09:40:07.924Z,2.55
2023-03-15T09:44:18.256Z,2.78
2023-03-15T09:48:25.444Z,3.13
2023-03-15T09:52:36.728Z,3.42
2023-03-15T09:56:45.624Z,3.00
2023-03-15T10:00:53.478Z,2.55
2023-03-15T10:05:02.350Z,2.58
2023-03-15T10:09:13.823Z,2.45
2023-03-15T10:13:32.758Z,2.33
2023-03-15T10:17:43.093Z,2.30
2023-03-15T10:21:56.321Z,2.28
2023-03-15T10:25:59.337Z,1.83
2023-03-15T10:30:14.126Z,2.17
2023-03-15T10:34:17.932Z,2.33
2023-03-15T10:42:34.190Z,1.83
2023-03-15T10:46:39.146Z,1.58
2023-03-15T10:50:41.993Z,1.60
2023-03-15T10:54:44.991Z,1.80
2023-03-15T10:59:02.291Z,1.63
2023-03-15T11:03:19.463Z,1.55
2023-03-15T11:07:22.670Z,1.50
2023-03-15T11:11:25.514Z,1.47
2023-03-15T11:15:28.343Z,1.23
2023-03-15T11:19:35.534Z,1.55
2023-03-15T11:23:40.715Z,1.20
2023-03-15T11:27:47.062Z,1.27
2023-03-15T11:31:51.878Z,1.20
2023-03-15T11:35:58.814Z,1.15
2023-03-15T11:40:11.785Z,1.30
2023-03-15T11:44:23.095Z,1.13
2023-03-15T11:48:29.847Z,1.25
2023-03-15T11:52:34.141Z,1.48
2023-03-15T12:00:54.789Z,1.48
2023-03-15T12:05:01.787Z,1.15
2023-03-15T12:09:48.168Z,1.23
2023-03-15T12:14:04.035Z,2.00
2023-03-15T12:18:07.379Z,0.95
2023-03-15T12:22:16.480Z,1.00
2023-03-15T12:26:42.393Z,1.10
2023-03-15T12:30:46.667Z,1.20
2023-03-15T12:34:51.295Z,1.23
2023-03-15T12:39:04.338Z,0.95
2023-03-15T12:43:09.145Z,0.75
2023-03-15T12:47:13.039Z,0.77
2023-03-15T12:51:57.385Z,0.90
2023-03-15T12:56:27.855Z,0.73
2023-03-15T13:00:32.839Z,0.93
2023-03-15T13:04:35.989Z,1.23
2023-03-15T13:08:47.543Z,0.80
2023-03-15T13:12:56.954Z,1.17
2023-03-15T13:17:07.436Z,0.80
2023-03-15T13:21:19.430Z,0.55
2023-03-15T13:25:30.647Z,1.10
2023-03-15T13:29:34.466Z,0.70
2023-03-15T13:33:37.450Z,0.80
2023-03-15T13:37:45.047Z,0.82
2023-03-15T13:41:49.286Z,0.85
2023-03-15T13:45:52.126Z,1.20
2023-03-15T13:49:54.950Z,0.90
2023-03-15T13:54:03.073Z,1.67
2023-03-15T13:58:10.531Z,1.50
2023-03-15T14:02:17.252Z,1.00
2023-03-15T14:06:24.260Z,1.10
2023-03-15T14:10:30.958Z,1.10
2023-03-15T14:14:38.446Z,1.20
2023-03-15T14:18:42.943Z,1.10
2023-03-15T14:22:46.032Z,1.65
2023-03-15T14:26:53.715Z,2.03
2023-03-15T14:31:02.364Z,0.93
2023-03-15T14:35:07.989Z,3.30
2023-03-15T14:39:19.773Z,1.30
2023-03-15T14:43:22.596Z,1.20
2023-03-15T14:47:26.854Z,1.42
2023-03-15T14:51:30.435Z,0.70
2023-03-15T14:55:35.042Z,1.73
2023-03-15T14:59:37.801Z,0.98
2023-03-15T15:03:44.813Z,0.95
2023-03-15T15:07:47.638Z,1.80
2023-03-15T15:11:51.387Z,1.10
2023-03-15T15:15:56.543Z,1.10
2023-03-15T15:20:00.972Z,0.90
2023-03-15T15:24:05.370Z,0.90
2023-03-15T15:28:08.232Z,1.23
2023-03-15T15:32:11.039Z,1.10
2023-03-15T15:36:26.860Z,1.25
2023-03-15T15:40:31.651Z,1.00
2023-03-15T15:44:34.444Z,1.20
2023-03-15T15:48:37.255Z,1.08
2023-03-15T15:52:46.450Z,1.02
2023-03-15T15:56:51.718Z,1.50
2023-03-15T16:00:54.486Z,1.13
2023-03-15T16:04:57.549Z,1.98
2023-03-15T16:09:02.036Z,1.17
2023-03-15T16:13:05.589Z,2.00
2023-03-15T16:17:12.355Z,1.60
2023-03-15T16:21:18.070Z,1.60
2023-03-15T16:25:26.393Z,1.80
2023-03-15T16:29:36.445Z,2.08
2023-03-15T16:33:39.229Z,2.50
2023-03-15T16:37:43.130Z,1.80
2023-03-15T16:41:47.292Z,1.70
2023-03-15T16:45:50.131Z,1.95
2023-03-15T16:49:52.918Z,1.73
2023-03-15T16:54:08.541Z,2.22
2023-03-15T16:58:20.808Z,2.47
2023-03-15T17:02:25.668Z,2.40
2023-03-15T17:06:29.192Z,2.25
2023-03-15T17:10:33.343Z,5.65
2023-03-15T17:14:38.808Z,2.42
2023-03-15T17:18:42.991Z,2.13
2023-03-15T17:22:45.905Z,1.90
2023-03-15T17:26:48.835Z,3.05
2023-03-15T17:30:59.588Z,3.67
2023-03-15T17:35:13.583Z,2.60
2023-03-15T17:39:17.837Z,2.30
2023-03-15T17:43:20.639Z,2.00
2023-03-15T17:47:24.813Z,2.50
2023-03-15T17:51:30.194Z,2.13
2023-03-15T17:55:34.881Z,2.20
2023-03-15T17:59:37.830Z,2.30
2023-03-15T18:03:43.637Z,2.35
2023-03-15T18:07:58.262Z,2.40
2023-03-15T18:12:02.315Z,2.50
2023-03-15T18:16:05.320Z,1.98
2023-03-15T18:20:12.203Z,3.92
2023-03-15T18:24:15.026Z,3.15
2023-03-15T18:28:17.823Z,2.97
2023-03-15T18:32:21.037Z,2.58
2023-03-15T18:36:25.125Z,6.78
2023-03-15T18:40:30.680Z,2.50
2023-03-15T18:44:33.513Z,2.40
2023-03-15T18:48:40.885Z,2.42
2023-03-15T18:52:46.146Z,2.33
2023-03-15T18:56:49.211Z,2.58
2023-03-15T19:00:51.995Z,2.65
2023-03-15T19:04:58.375Z,3.15
2023-03-15T19:13:05.178Z,2.67
2023-03-15T19:17:08.303Z,3.00
2023-03-15T19:21:11.539Z,3.22
2023-03-15T19:25:15.839Z,3.45
2023-03-15T19:29:18.669Z,2.70
2023-03-15T19:33:21.443Z,2.95
2023-03-15T19:37:24.631Z,3.70
2023-03-15T19:41:28.777Z,2.15
2023-03-15T19:45:31.670Z,2.38
2023-03-15T19:49:34.788Z,2.83
2023-03-15T19:53:37.852Z,1.95
2023-03-15T19:57:42.201Z,1.98
2023-03-15T20:01:45.112Z,2.22
2023-03-15T20:05:48.181Z,2.20
2023-03-15T20:09:50.941Z,3.28
2023-03-15T20:13:55.458Z,1.92
2023-03-15T20:17:58.245Z,2.15
2023-03-15T20:22:03.049Z,4.55
2023-03-15T20:26:09.892Z,3.83
2023-03-15T20:30:16.840Z,3.63
2023-03-15T20:34:20.474Z,2.65
2023-03-15T20:38:23.371Z,4.43
2023-03-15T20:42:26.282Z,3.92
2023-03-15T20:46:31.139Z,3.28
2023-03-15T20:50:34.257Z,3.08
2023-03-15T20:54:40.258Z,2.85
2023-03-15T20:58:43.127Z,2.90
2023-03-15T21:02:47.848Z,2.70
2023-03-15T21:06:50.795Z,2.95
2023-03-15T21:10:53.957Z,3.05
2023-03-15T21:14:56.801Z,3.58
2023-03-15T21:19:01.557Z,3.10
2023-03-15T21:23:06.462Z,3.28
2023-03-15T21:27:11.269Z,3.13
2023-03-15T21:31:15.390Z,3.70
2023-03-15T21:35:22.095Z,3.90
2023-03-15T21:39:24.969Z,6.13
2023-03-15T21:43:28.443Z,4.97
2023-03-15T21:47:31.486Z,6.93
2023-03-15T21:51:35.702Z,3.15
2023-03-15T21:55:38.617Z,3.00
2023-03-15T21:59:41.699Z,2.72
2023-03-15T22:03:44.533Z,3.05
2023-03-15T22:07:49.042Z,3.17
2023-03-15T22:11:51.788Z,3.60
2023-03-15T22:15:54.988Z,4.28
2023-03-15T22:19:57.791Z,3.08
2023-03-15T22:24:02.066Z,3.25
2023-03-15T22:28:04.838Z,3.35
2023-03-15T22:32:07.672Z,3.03
2023-03-15T22:36:10.867Z,3.13
2023-03-15T22:40:15.393Z,3.22
2023-03-15T22:44:18.282Z,3.20
2023-03-15T22:48:21.169Z,2.92
2023-03-15T22:52:23.992Z,3.17
2023-03-15T22:56:28.219Z,2.97
2023-03-15T23:00:30.998Z,3.20
2023-03-15T23:04:33.936Z,3.25
2023-03-15T23:08:36.853Z,3.60
2023-03-15T23:12:41.487Z,3.50
2023-03-15T23:16:44.325Z,3.42
2023-03-15T23:20:47.186Z,4.10
2023-03-15T23:24:49.956Z,3.90
2023-03-15T23:28:54.279Z,3.63
2023-03-15T23:32:58.813Z,4.32
2023-03-15T23:37:01.727Z,4.25
2023-03-15T23:41:05.152Z,4.07
2023-03-15T23:45:10.944Z,4.13
2023-03-15T23:49:13.858Z,4.03
2023-03-15T23:53:16.608Z,4.10
2023-03-15T23:57:19.399Z,4.30
